Hanley, Canada
Current Conditions -  °F | °C
As of 11:00 AM on Thursday 27 Nov 2014 (Local Time) from CYXE Reporting Station
Overcast Overcast  
Wind Chill: -9°   Ceiling: 600
Heat Index:   Visibility: 15mi
Dew Point:   Wind: 13mph
Humidity: 85%   Direction: 50°NE
Pressure: 30.08"   Gusts: NA
Location:  51.62°N, 106.43°W
Report Text: CYXE 271700Z 05011KT 15SM OVC006 M14/M16 A3008 RMK SC8 SLP233
Loading
Personal Weather Stations






























Interactive Weather Map New forecast layout! Learn more

10-Day Weather Forecast

Advertisements
Track Severe Weather on mobile